Ana Sayfa
METAR-TAF:

METAR-TAF

Havaalanları :

Portland International Jetport

Portland, Maine, Amerika Birleşik Devletleri

Enlem: 43-38-32N, Boylam: 070-18-16W, yükseklik: 22 m

Güncel hava durumu gözlemi

Rapor saat 21:51 UTC de 28 dakika önce yapıldı.
Rüzgar kuzey/kuzeybatıdan 10 kt
Sıcaklık -2°C
Nem 28%
Basınç 1033 hPa
Görüş mesafesi: 16.1 km
Açık gökyüzü

METAR: KPWM 162151Z 33010KT 10SM CLR M02/M18 A3050 RMK AO2 SLP328 T10221178

Saat: 17:19 (22:19 UTC)

Tahmin

Rapor saat 19:10 UTC de 3 saat ve 9 dakika önce yapıldı.
Ayın 16'si saat 19 UTC'den ayın 17'si saat 18 UTC'ye kadar geçerli Tahmin
Rüzgar kuzey/kuzeybatıdan 10 kt
Görüş mesafesi: 10 km
Açık gökyüzü
Ayın 16'si saat 2200 UTC'den
Rüzgar kuzeydan 5 kt
Görüş mesafesi: 10 km
Açık gökyüzü
Ayın 17'si saat 1200 UTC'den
Rüzgar kuzey/kuzeydoğudan 5 kt
Görüş mesafesi: 10 km
Açık gökyüzü

TAF: KPWM 161910Z 1619/1718 33010KT P6SM SKC FM162200 35005KT P6SM SKC FM171200 03005KT P6SM SKC

4.000'den fazla havaalanı için hava durumu gözlemleri ve tahminleri (METAR ve TAF raporları).

Kullanılabilir istasyonlar harita üzerinde sarı ve kırmızı noktalarla gösterilir.

İstasyonun adını görmek için fareyi noktanın üzerinde gezdirin.

Sonrasında hava gözlem ve tahminlerini görmek için tıklayın.

Haritayı değiştirmek için: yaklaştırmak için siyah artı işaretli yeşil düğmeye ve uzaklaştırmak için de eksi işaretli düğmeye hızla tıklayın; bitişik haritalar için yeşil okları kullanın.


METAR-TAF: